sensor_id;sensor_type;location;lat;lon;timestamp;P1;durP1;ratioP1;P2;durP2;ratioP2
78346;SDS011;67803;41.330;69.282;2023-12-29T00:01:51;101.75;;;17.00;;
78346;SDS011;67803;41.330;69.282;2023-12-29T00:04:22;101.03;;;14.57;;
78346;SDS011;67803;41.330;69.282;2023-12-29T00:06:52;100.57;;;15.70;;
78346;SDS011;67803;41.330;69.282;2023-12-29T00:09:23;92.65;;;15.93;;
78346;SDS011;67803;41.330;69.282;2023-12-29T00:11:53;90.72;;;13.77;;
78346;SDS011;67803;41.330;69.282;2023-12-29T00:14:27;98.78;;;14.18;;
78346;SDS011;67803;41.330;69.282;2023-12-29T00:16:57;102.15;;;15.55;;
78346;SDS011;67803;41.330;69.282;2023-12-29T00:19:28;88.90;;;13.52;;
78346;SDS011;67803;41.330;69.282;2023-12-29T00:21:58;103.07;;;15.45;;
78346;SDS011;67803;41.330;69.282;2023-12-29T00:24:30;110.22;;;14.38;;
78346;SDS011;67803;41.330;69.282;2023-12-29T00:27:03;95.95;;;13.73;;
78346;SDS011;67803;41.330;69.282;2023-12-29T00:29:34;89.25;;;14.35;;
78346;SDS011;67803;41.330;69.282;2023-12-29T00:32:05;92.97;;;12.35;;
78346;SDS011;67803;41.330;69.282;2023-12-29T00:34:35;95.80;;;13.95;;
78346;SDS011;67803;41.330;69.282;2023-12-29T00:37:07;93.47;;;14.00;;
78346;SDS011;67803;41.330;69.282;2023-12-29T00:39:38;90.50;;;14.55;;
78346;SDS011;67803;41.330;69.282;2023-12-29T00:42:10;99.80;;;17.02;;
78346;SDS011;67803;41.330;69.282;2023-12-29T00:44:40;101.43;;;14.60;;
78346;SDS011;67803;41.330;69.282;2023-12-29T00:47:11;90.65;;;13.60;;
78346;SDS011;67803;41.330;69.282;2023-12-29T00:49:42;97.72;;;14.43;;
78346;SDS011;67803;41.330;69.282;2023-12-29T00:52:12;95.03;;;14.05;;
78346;SDS011;67803;41.330;69.282;2023-12-29T00:54:43;96.70;;;14.65;;
78346;SDS011;67803;41.330;69.282;2023-12-29T00:57:13;106.20;;;16.23;;
78346;SDS011;67803;41.330;69.282;2023-12-29T00:59:46;88.25;;;14.07;;
78346;SDS011;67803;41.330;69.282;2023-12-29T01:02:17;97.22;;;16.90;;
78346;SDS011;67803;41.330;69.282;2023-12-29T01:04:47;99.90;;;13.93;;
78346;SDS011;67803;41.330;69.282;2023-12-29T01:07:18;94.10;;;13.07;;
78346;SDS011;67803;41.330;69.282;2023-12-29T01:09:48;89.90;;;13.98;;
78346;SDS011;67803;41.330;69.282;2023-12-29T01:12:19;98.40;;;14.93;;
78346;SDS011;67803;41.330;69.282;2023-12-29T01:14:49;105.00;;;14.55;;
78346;SDS011;67803;41.330;69.282;2023-12-29T01:17:20;93.35;;;12.82;;
78346;SDS011;67803;41.330;69.282;2023-12-29T01:19:52;98.22;;;13.65;;
78346;SDS011;67803;41.330;69.282;2023-12-29T01:22:23;106.78;;;13.30;;
78346;SDS011;67803;41.330;69.282;2023-12-29T01:24:53;83.57;;;12.43;;
78346;SDS011;67803;41.330;69.282;2023-12-29T01:27:24;77.68;;;11.57;;
78346;SDS011;67803;41.330;69.282;2023-12-29T01:29:54;86.60;;;12.90;;
78346;SDS011;67803;41.330;69.282;2023-12-29T01:32:25;88.50;;;14.60;;
78346;SDS011;67803;41.330;69.282;2023-12-29T01:34:55;80.97;;;11.85;;
78346;SDS011;67803;41.330;69.282;2023-12-29T01:37:26;80.25;;;12.27;;
78346;SDS011;67803;41.330;69.282;2023-12-29T01:39:56;80.05;;;11.00;;
78346;SDS011;67803;41.330;69.282;2023-12-29T01:42:27;67.75;;;12.30;;
78346;SDS011;67803;41.330;69.282;2023-12-29T01:44:58;73.82;;;10.20;;
78346;SDS011;67803;41.330;69.282;2023-12-29T01:47:29;87.40;;;11.80;;
78346;SDS011;67803;41.330;69.282;2023-12-29T01:50:00;88.88;;;13.25;;
78346;SDS011;67803;41.330;69.282;2023-12-29T01:52:30;77.07;;;11.13;;
78346;SDS011;67803;41.330;69.282;2023-12-29T01:55:01;77.30;;;10.02;;
78346;SDS011;67803;41.330;69.282;2023-12-29T01:57:32;74.32;;;12.05;;
78346;SDS011;67803;41.330;69.282;2023-12-29T02:00:05;85.70;;;12.27;;
78346;SDS011;67803;41.330;69.282;2023-12-29T02:02:36;90.03;;;11.18;;
78346;SDS011;67803;41.330;69.282;2023-12-29T02:05:07;88.57;;;10.27;;
78346;SDS011;67803;41.330;69.282;2023-12-29T02:07:37;98.13;;;13.52;;
78346;SDS011;67803;41.330;69.282;2023-12-29T02:10:08;95.40;;;13.50;;
78346;SDS011;67803;41.330;69.282;2023-12-29T02:12:40;91.32;;;11.98;;
78346;SDS011;67803;41.330;69.282;2023-12-29T02:15:11;66.53;;;9.75;;
78346;SDS011;67803;41.330;69.282;2023-12-29T02:18:02;67.72;;;9.02;;
78346;SDS011;67803;41.330;69.282;2023-12-29T02:20:32;63.75;;;7.18;;
78346;SDS011;67803;41.330;69.282;2023-12-29T02:23:03;52.80;;;7.38;;
78346;SDS011;67803;41.330;69.282;2023-12-29T02:25:34;66.82;;;8.93;;
78346;SDS011;67803;41.330;69.282;2023-12-29T02:28:23;56.47;;;6.70;;
78346;SDS011;67803;41.330;69.282;2023-12-29T02:31:01;57.35;;;7.72;;
78346;SDS011;67803;41.330;69.282;2023-12-29T02:33:35;57.95;;;7.07;;
78346;SDS011;67803;41.330;69.282;2023-12-29T02:36:07;42.70;;;6.82;;
78346;SDS011;67803;41.330;69.282;2023-12-29T02:38:38;49.88;;;6.75;;
78346;SDS011;67803;41.330;69.282;2023-12-29T02:41:09;47.85;;;5.82;;
78346;SDS011;67803;41.330;69.282;2023-12-29T02:43:40;50.95;;;7.40;;
78346;SDS011;67803;41.330;69.282;2023-12-29T02:46:10;55.33;;;7.05;;
78346;SDS011;67803;41.330;69.282;2023-12-29T02:48:41;50.85;;;9.15;;
78346;SDS011;67803;41.330;69.282;2023-12-29T02:51:11;51.75;;;6.78;;
78346;SDS011;67803;41.330;69.282;2023-12-29T02:53:42;47.55;;;7.25;;
78346;SDS011;67803;41.330;69.282;2023-12-29T02:56:12;47.65;;;6.80;;
78346;SDS011;67803;41.330;69.282;2023-12-29T02:58:43;48.58;;;7.82;;
78346;SDS011;67803;41.330;69.282;2023-12-29T03:01:16;42.97;;;7.85;;
78346;SDS011;67803;41.330;69.282;2023-12-29T03:03:46;41.97;;;6.47;;
78346;SDS011;67803;41.330;69.282;2023-12-29T03:06:17;36.75;;;8.25;;
78346;SDS011;67803;41.330;69.282;2023-12-29T03:08:47;39.15;;;6.72;;
78346;SDS011;67803;41.330;69.282;2023-12-29T03:11:18;39.17;;;6.95;;
78346;SDS011;67803;41.330;69.282;2023-12-29T03:13:49;41.10;;;6.85;;
78346;SDS011;67803;41.330;69.282;2023-12-29T03:16:19;29.65;;;6.68;;
78346;SDS011;67803;41.330;69.282;2023-12-29T03:18:50;31.00;;;7.05;;
78346;SDS011;67803;41.330;69.282;2023-12-29T03:21:21;27.52;;;6.32;;
78346;SDS011;67803;41.330;69.282;2023-12-29T03:27:01;25.13;;;7.15;;
78346;SDS011;67803;41.330;69.282;2023-12-29T03:29:31;47.30;;;7.47;;
78346;SDS011;67803;41.330;69.282;2023-12-29T03:32:02;28.92;;;7.15;;
78346;SDS011;67803;41.330;69.282;2023-12-29T03:34:33;28.38;;;7.75;;
78346;SDS011;67803;41.330;69.282;2023-12-29T03:37:03;50.80;;;21.70;;
78346;SDS011;67803;41.330;69.282;2023-12-29T03:39:34;39.38;;;7.90;;
78346;SDS011;67803;41.330;69.282;2023-12-29T03:42:05;15.45;;;6.82;;
78346;SDS011;67803;41.330;69.282;2023-12-29T03:44:36;15.82;;;5.95;;
78346;SDS011;67803;41.330;69.282;2023-12-29T03:47:07;18.63;;;6.65;;
78346;SDS011;67803;41.330;69.282;2023-12-29T03:49:38;23.83;;;6.35;;
78346;SDS011;67803;41.330;69.282;2023-12-29T03:52:08;23.13;;;5.20;;
78346;SDS011;67803;41.330;69.282;2023-12-29T03:54:39;14.75;;;5.85;;
78346;SDS011;67803;41.330;69.282;2023-12-29T03:57:09;15.18;;;5.50;;
78346;SDS011;67803;41.330;69.282;2023-12-29T03:59:40;15.73;;;5.40;;
78346;SDS011;67803;41.330;69.282;2023-12-29T04:02:11;30.70;;;6.65;;
78346;SDS011;67803;41.330;69.282;2023-12-29T04:04:41;17.63;;;6.32;;
78346;SDS011;67803;41.330;69.282;2023-12-29T04:07:12;25.83;;;7.30;;
78346;SDS011;67803;41.330;69.282;2023-12-29T04:09:42;20.80;;;6.13;;
78346;SDS011;67803;41.330;69.282;2023-12-29T04:12:13;29.10;;;7.13;;
78346;SDS011;67803;41.330;69.282;2023-12-29T04:14:44;14.18;;;5.60;;
78346;SDS011;67803;41.330;69.282;2023-12-29T04:17:14;9.85;;;4.78;;
78346;SDS011;67803;41.330;69.282;2023-12-29T04:19:45;7.80;;;4.68;;
78346;SDS011;67803;41.330;69.282;2023-12-29T04:22:15;9.82;;;4.63;;
78346;SDS011;67803;41.330;69.282;2023-12-29T04:24:46;14.38;;;4.35;;
78346;SDS011;67803;41.330;69.282;2023-12-29T04:27:17;13.00;;;5.07;;
78346;SDS011;67803;41.330;69.282;2023-12-29T04:29:47;11.43;;;4.25;;
78346;SDS011;67803;41.330;69.282;2023-12-29T04:32:19;18.98;;;4.50;;
78346;SDS011;67803;41.330;69.282;2023-12-29T04:34:49;11.48;;;4.10;;
78346;SDS011;67803;41.330;69.282;2023-12-29T04:37:20;14.45;;;4.32;;
78346;SDS011;67803;41.330;69.282;2023-12-29T04:39:51;17.45;;;3.92;;
78346;SDS011;67803;41.330;69.282;2023-12-29T04:42:21;6.95;;;3.50;;
78346;SDS011;67803;41.330;69.282;2023-12-29T04:44:52;7.95;;;3.65;;
78346;SDS011;67803;41.330;69.282;2023-12-29T04:47:22;7.25;;;2.90;;
78346;SDS011;67803;41.330;69.282;2023-12-29T04:49:53;20.08;;;3.88;;
78346;SDS011;67803;41.330;69.282;2023-12-29T04:52:23;15.68;;;5.57;;
78346;SDS011;67803;41.330;69.282;2023-12-29T04:54:54;23.70;;;2.40;;
78346;SDS011;67803;41.330;69.282;2023-12-29T04:57:25;9.40;;;1.60;;
78346;SDS011;67803;41.330;69.282;2023-12-29T04:59:56;5.85;;;2.05;;
78346;SDS011;67803;41.330;69.282;2023-12-29T05:02:27;4.50;;;1.52;;
78346;SDS011;67803;41.330;69.282;2023-12-29T05:04:57;8.40;;;2.10;;
78346;SDS011;67803;41.330;69.282;2023-12-29T05:07:28;4.35;;;1.60;;
78346;SDS011;67803;41.330;69.282;2023-12-29T05:09:58;5.07;;;2.30;;
78346;SDS011;67803;41.330;69.282;2023-12-29T05:12:29;8.00;;;1.95;;
78346;SDS011;67803;41.330;69.282;2023-12-29T05:15:00;10.48;;;5.50;;
78346;SDS011;67803;41.330;69.282;2023-12-29T05:17:30;2.70;;;1.48;;
78346;SDS011;67803;41.330;69.282;2023-12-29T05:20:01;3.05;;;0.82;;
78346;SDS011;67803;41.330;69.282;2023-12-29T05:22:32;7.65;;;1.98;;
78346;SDS011;67803;41.330;69.282;2023-12-29T05:25:02;16.20;;;2.72;;
78346;SDS011;67803;41.330;69.282;2023-12-29T05:27:33;6.55;;;1.70;;
78346;SDS011;67803;41.330;69.282;2023-12-29T05:30:04;3.70;;;1.20;;
78346;SDS011;67803;41.330;69.282;2023-12-29T05:32:35;4.90;;;1.30;;
78346;SDS011;67803;41.330;69.282;2023-12-29T05:35:05;18.40;;;2.97;;
78346;SDS011;67803;41.330;69.282;2023-12-29T05:37:36;29.20;;;3.42;;
78346;SDS011;67803;41.330;69.282;2023-12-29T05:40:06;12.60;;;3.28;;
78346;SDS011;67803;41.330;69.282;2023-12-29T05:42:37;62.03;;;6.72;;
78346;SDS011;67803;41.330;69.282;2023-12-29T05:45:08;107.30;;;10.75;;
78346;SDS011;67803;41.330;69.282;2023-12-29T05:47:39;16.55;;;3.53;;
78346;SDS011;67803;41.330;69.282;2023-12-29T05:50:09;90.68;;;8.93;;
78346;SDS011;67803;41.330;69.282;2023-12-29T05:52:40;151.45;;;14.27;;
78346;SDS011;67803;41.330;69.282;2023-12-29T05:55:10;35.25;;;4.50;;
78346;SDS011;67803;41.330;69.282;2023-12-29T05:57:41;129.50;;;12.95;;
78346;SDS011;67803;41.330;69.282;2023-12-29T06:00:11;23.65;;;5.40;;
78346;SDS011;67803;41.330;69.282;2023-12-29T06:02:44;21.23;;;4.50;;
78346;SDS011;67803;41.330;69.282;2023-12-29T06:05:15;4.68;;;2.83;;
78346;SDS011;67803;41.330;69.282;2023-12-29T06:07:45;152.07;;;13.63;;
78346;SDS011;67803;41.330;69.282;2023-12-29T06:10:16;73.70;;;9.95;;
78346;SDS011;67803;41.330;69.282;2023-12-29T06:12:46;3.90;;;2.25;;
78346;SDS011;67803;41.330;69.282;2023-12-29T06:15:17;4.72;;;2.30;;
78346;SDS011;67803;41.330;69.282;2023-12-29T06:17:48;49.13;;;5.93;;
78346;SDS011;67803;41.330;69.282;2023-12-29T06:20:18;35.67;;;6.20;;
78346;SDS011;67803;41.330;69.282;2023-12-29T06:22:50;101.03;;;11.50;;
78346;SDS011;67803;41.330;69.282;2023-12-29T06:25:20;33.60;;;4.30;;
78346;SDS011;67803;41.330;69.282;2023-12-29T06:27:51;52.75;;;6.45;;
78346;SDS011;67803;41.330;69.282;2023-12-29T06:30:22;65.05;;;8.05;;
78346;SDS011;67803;41.330;69.282;2023-12-29T06:32:52;35.22;;;6.13;;
78346;SDS011;67803;41.330;69.282;2023-12-29T06:35:23;5.00;;;2.40;;
78346;SDS011;67803;41.330;69.282;2023-12-29T06:37:53;11.55;;;3.17;;
78346;SDS011;67803;41.330;69.282;2023-12-29T06:40:24;6.35;;;3.10;;
78346;SDS011;67803;41.330;69.282;2023-12-29T06:42:54;5.68;;;2.45;;
78346;SDS011;67803;41.330;69.282;2023-12-29T06:45:25;5.60;;;2.75;;
78346;SDS011;67803;41.330;69.282;2023-12-29T06:47:55;17.08;;;4.25;;
78346;SDS011;67803;41.330;69.282;2023-12-29T06:50:27;7.80;;;3.97;;
78346;SDS011;67803;41.330;69.282;2023-12-29T06:52:57;14.13;;;4.10;;
78346;SDS011;67803;41.330;69.282;2023-12-29T06:55:28;5.53;;;3.40;;
78346;SDS011;67803;41.330;69.282;2023-12-29T06:57:58;9.38;;;3.85;;
78346;SDS011;67803;41.330;69.282;2023-12-29T07:00:29;4.68;;;3.00;;
78346;SDS011;67803;41.330;69.282;2023-12-29T07:03:00;6.88;;;3.67;;
78346;SDS011;67803;41.330;69.282;2023-12-29T07:05:31;6.03;;;3.40;;
78346;SDS011;67803;41.330;69.282;2023-12-29T07:08:02;55.58;;;8.63;;
78346;SDS011;67803;41.330;69.282;2023-12-29T07:10:33;8.40;;;4.07;;
78346;SDS011;67803;41.330;69.282;2023-12-29T07:13:03;18.85;;;5.05;;
78346;SDS011;67803;41.330;69.282;2023-12-29T07:15:34;6.90;;;3.83;;
78346;SDS011;67803;41.330;69.282;2023-12-29T07:18:04;6.10;;;3.78;;
78346;SDS011;67803;41.330;69.282;2023-12-29T07:20:35;6.47;;;3.60;;
78346;SDS011;67803;41.330;69.282;2023-12-29T07:23:05;7.68;;;3.50;;
78346;SDS011;67803;41.330;69.282;2023-12-29T07:25:36;4.70;;;3.17;;
78346;SDS011;67803;41.330;69.282;2023-12-29T07:28:06;7.25;;;2.63;;
78346;SDS011;67803;41.330;69.282;2023-12-29T07:30:37;8.65;;;3.30;;
78346;SDS011;67803;41.330;69.282;2023-12-29T07:33:08;15.85;;;3.75;;
78346;SDS011;67803;41.330;69.282;2023-12-29T07:35:38;6.22;;;2.88;;
78346;SDS011;67803;41.330;69.282;2023-12-29T07:38:09;8.40;;;3.05;;
78346;SDS011;67803;41.330;69.282;2023-12-29T07:40:40;6.13;;;2.85;;
78346;SDS011;67803;41.330;69.282;2023-12-29T07:43:10;9.25;;;3.65;;
78346;SDS011;67803;41.330;69.282;2023-12-29T07:45:41;12.10;;;4.07;;
78346;SDS011;67803;41.330;69.282;2023-12-29T07:48:13;16.48;;;4.65;;
78346;SDS011;67803;41.330;69.282;2023-12-29T07:50:44;8.05;;;4.03;;
78346;SDS011;67803;41.330;69.282;2023-12-29T07:53:14;19.00;;;6.07;;
78346;SDS011;67803;41.330;69.282;2023-12-29T07:55:45;6.05;;;3.60;;
78346;SDS011;67803;41.330;69.282;2023-12-29T07:58:17;6.70;;;3.30;;
78346;SDS011;67803;41.330;69.282;2023-12-29T08:00:47;7.05;;;4.03;;
78346;SDS011;67803;41.330;69.282;2023-12-29T08:03:18;5.63;;;3.78;;
78346;SDS011;67803;41.330;69.282;2023-12-29T08:05:49;12.70;;;5.65;;
78346;SDS011;67803;41.330;69.282;2023-12-29T08:08:19;6.80;;;4.22;;
78346;SDS011;67803;41.330;69.282;2023-12-29T08:10:50;10.45;;;4.40;;
78346;SDS011;67803;41.330;69.282;2023-12-29T08:13:21;7.18;;;4.10;;
78346;SDS011;67803;41.330;69.282;2023-12-29T08:15:51;7.05;;;3.67;;
78346;SDS011;67803;41.330;69.282;2023-12-29T08:18:22;6.53;;;3.50;;
78346;SDS011;67803;41.330;69.282;2023-12-29T08:20:52;8.73;;;4.88;;
78346;SDS011;67803;41.330;69.282;2023-12-29T08:23:23;7.75;;;4.40;;
78346;SDS011;67803;41.330;69.282;2023-12-29T08:25:57;6.88;;;3.72;;
78346;SDS011;67803;41.330;69.282;2023-12-29T08:28:28;7.13;;;4.13;;
78346;SDS011;67803;41.330;69.282;2023-12-29T08:30:59;5.93;;;3.83;;
78346;SDS011;67803;41.330;69.282;2023-12-29T08:33:29;6.30;;;4.05;;
78346;SDS011;67803;41.330;69.282;2023-12-29T08:36:01;7.97;;;4.53;;
78346;SDS011;67803;41.330;69.282;2023-12-29T08:38:32;9.30;;;5.28;;
78346;SDS011;67803;41.330;69.282;2023-12-29T08:41:03;6.28;;;4.07;;
78346;SDS011;67803;41.330;69.282;2023-12-29T08:43:34;8.50;;;4.68;;
78346;SDS011;67803;41.330;69.282;2023-12-29T08:46:06;10.80;;;5.22;;
78346;SDS011;67803;41.330;69.282;2023-12-29T08:48:37;10.90;;;5.95;;
78346;SDS011;67803;41.330;69.282;2023-12-29T08:51:07;11.43;;;6.00;;
78346;SDS011;67803;41.330;69.282;2023-12-29T08:53:38;9.82;;;6.25;;
78346;SDS011;67803;41.330;69.282;2023-12-29T08:56:08;10.30;;;6.03;;
78346;SDS011;67803;41.330;69.282;2023-12-29T08:58:40;13.00;;;6.82;;
78346;SDS011;67803;41.330;69.282;2023-12-29T09:01:10;12.38;;;7.43;;
78346;SDS011;67803;41.330;69.282;2023-12-29T09:03:41;14.75;;;7.20;;
78346;SDS011;67803;41.330;69.282;2023-12-29T09:06:12;11.70;;;7.18;;
78346;SDS011;67803;41.330;69.282;2023-12-29T09:08:44;14.38;;;7.95;;
78346;SDS011;67803;41.330;69.282;2023-12-29T09:11:14;14.25;;;7.45;;
78346;SDS011;67803;41.330;69.282;2023-12-29T09:13:45;10.93;;;7.50;;
78346;SDS011;67803;41.330;69.282;2023-12-29T09:16:15;10.65;;;6.68;;
78346;SDS011;67803;41.330;69.282;2023-12-29T09:18:46;9.45;;;5.80;;
78346;SDS011;67803;41.330;69.282;2023-12-29T09:21:17;12.43;;;6.28;;
78346;SDS011;67803;41.330;69.282;2023-12-29T09:23:49;8.15;;;5.50;;
78346;SDS011;67803;41.330;69.282;2023-12-29T09:26:21;9.50;;;5.75;;
78346;SDS011;67803;41.330;69.282;2023-12-29T09:28:58;12.77;;;7.60;;
78346;SDS011;67803;41.330;69.282;2023-12-29T09:31:28;11.88;;;7.45;;
78346;SDS011;67803;41.330;69.282;2023-12-29T09:33:59;13.77;;;7.70;;
78346;SDS011;67803;41.330;69.282;2023-12-29T09:36:30;13.35;;;7.60;;
78346;SDS011;67803;41.330;69.282;2023-12-29T09:39:01;11.07;;;7.38;;
78346;SDS011;67803;41.330;69.282;2023-12-29T09:41:33;14.48;;;7.78;;
78346;SDS011;67803;41.330;69.282;2023-12-29T09:44:03;13.13;;;7.80;;
78346;SDS011;67803;41.330;69.282;2023-12-29T09:46:37;9.68;;;7.05;;
78346;SDS011;67803;41.330;69.282;2023-12-29T09:49:08;13.55;;;7.45;;
78346;SDS011;67803;41.330;69.282;2023-12-29T09:51:38;12.20;;;7.50;;
78346;SDS011;67803;41.330;69.282;2023-12-29T09:54:11;11.48;;;7.32;;
78346;SDS011;67803;41.330;69.282;2023-12-29T09:56:42;14.32;;;8.48;;
78346;SDS011;67803;41.330;69.282;2023-12-29T09:59:13;14.15;;;8.32;;
78346;SDS011;67803;41.330;69.282;2023-12-29T10:01:45;16.35;;;8.80;;
78346;SDS011;67803;41.330;69.282;2023-12-29T10:04:15;13.77;;;7.53;;
78346;SDS011;67803;41.330;69.282;2023-12-29T10:06:46;13.45;;;7.88;;
78346;SDS011;67803;41.330;69.282;2023-12-29T10:09:18;11.75;;;7.50;;
78346;SDS011;67803;41.330;69.282;2023-12-29T10:11:50;11.63;;;7.03;;
78346;SDS011;67803;41.330;69.282;2023-12-29T10:14:30;10.95;;;6.72;;
78346;SDS011;67803;41.330;69.282;2023-12-29T10:17:03;11.88;;;6.55;;
78346;SDS011;67803;41.330;69.282;2023-12-29T10:19:40;10.15;;;6.25;;
78346;SDS011;67803;41.330;69.282;2023-12-29T10:22:14;11.50;;;6.65;;
78346;SDS011;67803;41.330;69.282;2023-12-29T10:24:45;11.90;;;6.38;;
78346;SDS011;67803;41.330;69.282;2023-12-29T10:27:17;9.98;;;6.20;;
78346;SDS011;67803;41.330;69.282;2023-12-29T10:29:47;11.55;;;6.05;;
78346;SDS011;67803;41.330;69.282;2023-12-29T10:32:18;12.48;;;6.72;;
78346;SDS011;67803;41.330;69.282;2023-12-29T10:34:48;11.57;;;6.60;;
78346;SDS011;67803;41.330;69.282;2023-12-29T10:37:22;13.43;;;7.40;;
78346;SDS011;67803;41.330;69.282;2023-12-29T10:39:56;12.90;;;7.10;;
78346;SDS011;67803;41.330;69.282;2023-12-29T10:42:26;12.82;;;6.25;;
78346;SDS011;67803;41.330;69.282;2023-12-29T10:45:05;12.65;;;6.45;;
78346;SDS011;67803;41.330;69.282;2023-12-29T10:47:37;10.15;;;6.38;;
78346;SDS011;67803;41.330;69.282;2023-12-29T10:50:08;8.88;;;4.82;;
78346;SDS011;67803;41.330;69.282;2023-12-29T10:52:39;11.25;;;6.72;;
78346;SDS011;67803;41.330;69.282;2023-12-29T10:55:11;12.35;;;7.78;;
78346;SDS011;67803;41.330;69.282;2023-12-29T10:57:42;11.48;;;6.93;;
78346;SDS011;67803;41.330;69.282;2023-12-29T11:00:13;12.45;;;7.22;;
78346;SDS011;67803;41.330;69.282;2023-12-29T11:02:44;13.57;;;8.45;;
78346;SDS011;67803;41.330;69.282;2023-12-29T11:05:27;13.73;;;7.35;;
78346;SDS011;67803;41.330;69.282;2023-12-29T11:07:58;17.20;;;8.50;;
78346;SDS011;67803;41.330;69.282;2023-12-29T11:10:29;16.27;;;9.45;;
78346;SDS011;67803;41.330;69.282;2023-12-29T11:13:00;11.93;;;7.97;;
78346;SDS011;67803;41.330;69.282;2023-12-29T11:15:32;16.20;;;7.20;;
78346;SDS011;67803;41.330;69.282;2023-12-29T11:18:03;13.85;;;7.05;;
78346;SDS011;67803;41.330;69.282;2023-12-29T11:20:34;14.38;;;6.90;;
78346;SDS011;67803;41.330;69.282;2023-12-29T11:23:06;7.85;;;5.60;;
78346;SDS011;67803;41.330;69.282;2023-12-29T11:25:38;8.82;;;6.00;;
78346;SDS011;67803;41.330;69.282;2023-12-29T11:28:10;12.07;;;7.25;;
78346;SDS011;67803;41.330;69.282;2023-12-29T11:30:42;9.95;;;7.00;;
78346;SDS011;67803;41.330;69.282;2023-12-29T11:33:20;11.70;;;6.70;;
78346;SDS011;67803;41.330;69.282;2023-12-29T11:35:54;10.57;;;6.22;;
78346;SDS011;67803;41.330;69.282;2023-12-29T11:41:02;12.30;;;5.00;;
78346;SDS011;67803;41.330;69.282;2023-12-29T11:43:35;9.85;;;5.38;;
78346;SDS011;67803;41.330;69.282;2023-12-29T11:46:06;11.05;;;4.82;;
78346;SDS011;67803;41.330;69.282;2023-12-29T11:48:56;9.02;;;4.78;;
78346;SDS011;67803;41.330;69.282;2023-12-29T11:51:35;10.40;;;5.20;;
78346;SDS011;67803;41.330;69.282;2023-12-29T11:54:06;13.00;;;5.78;;
78346;SDS011;67803;41.330;69.282;2023-12-29T11:56:46;11.27;;;5.38;;
78346;SDS011;67803;41.330;69.282;2023-12-29T12:01:51;11.18;;;6.00;;
78346;SDS011;67803;41.330;69.282;2023-12-29T12:04:38;9.80;;;6.22;;
78346;SDS011;67803;41.330;69.282;2023-12-29T12:12:55;8.95;;;6.18;;
78346;SDS011;67803;41.330;69.282;2023-12-29T12:18:00;13.13;;;7.60;;
78346;SDS011;67803;41.330;69.282;2023-12-29T12:20:31;11.65;;;7.63;;
78346;SDS011;67803;41.330;69.282;2023-12-29T12:23:02;14.50;;;8.57;;
78346;SDS011;67803;41.330;69.282;2023-12-29T12:25:33;15.50;;;8.07;;
78346;SDS011;67803;41.330;69.282;2023-12-29T12:28:05;12.52;;;6.68;;
78346;SDS011;67803;41.330;69.282;2023-12-29T12:30:36;9.68;;;5.90;;
78346;SDS011;67803;41.330;69.282;2023-12-29T12:33:07;14.32;;;5.20;;
78346;SDS011;67803;41.330;69.282;2023-12-29T12:35:41;7.13;;;4.53;;
78346;SDS011;67803;41.330;69.282;2023-12-29T12:38:16;6.60;;;4.88;;
78346;SDS011;67803;41.330;69.282;2023-12-29T12:40:52;6.68;;;4.10;;
78346;SDS011;67803;41.330;69.282;2023-12-29T12:43:23;8.55;;;4.57;;
78346;SDS011;67803;41.330;69.282;2023-12-29T12:45:59;8.73;;;5.18;;
78346;SDS011;67803;41.330;69.282;2023-12-29T12:48:33;7.10;;;4.65;;
78346;SDS011;67803;41.330;69.282;2023-12-29T12:51:04;8.35;;;5.05;;
78346;SDS011;67803;41.330;69.282;2023-12-29T12:53:34;13.75;;;7.03;;
78346;SDS011;67803;41.330;69.282;2023-12-29T12:56:09;9.50;;;5.55;;
78346;SDS011;67803;41.330;69.282;2023-12-29T12:58:40;9.15;;;5.60;;
78346;SDS011;67803;41.330;69.282;2023-12-29T13:01:11;9.80;;;5.65;;
78346;SDS011;67803;41.330;69.282;2023-12-29T13:03:42;8.77;;;5.88;;
78346;SDS011;67803;41.330;69.282;2023-12-29T13:06:12;9.52;;;6.40;;
78346;SDS011;67803;41.330;69.282;2023-12-29T13:08:44;8.25;;;5.65;;
78346;SDS011;67803;41.330;69.282;2023-12-29T13:11:18;9.13;;;5.68;;
78346;SDS011;67803;41.330;69.282;2023-12-29T13:13:49;9.07;;;5.28;;
78346;SDS011;67803;41.330;69.282;2023-12-29T13:16:28;7.63;;;3.90;;
78346;SDS011;67803;41.330;69.282;2023-12-29T13:19:14;8.55;;;4.90;;
78346;SDS011;67803;41.330;69.282;2023-12-29T13:21:45;8.25;;;4.47;;
78346;SDS011;67803;41.330;69.282;2023-12-29T13:24:16;5.50;;;3.80;;
78346;SDS011;67803;41.330;69.282;2023-12-29T13:26:47;8.15;;;3.85;;
78346;SDS011;67803;41.330;69.282;2023-12-29T13:29:23;6.38;;;3.70;;
78346;SDS011;67803;41.330;69.282;2023-12-29T13:32:21;4.85;;;2.30;;
78346;SDS011;67803;41.330;69.282;2023-12-29T13:37:31;5.35;;;2.38;;
78346;SDS011;67803;41.330;69.282;2023-12-29T13:42:34;6.13;;;3.72;;
78346;SDS011;67803;41.330;69.282;2023-12-29T13:45:05;6.50;;;3.28;;
78346;SDS011;67803;41.330;69.282;2023-12-29T13:47:37;6.75;;;3.75;;
78346;SDS011;67803;41.330;69.282;2023-12-29T13:50:10;8.43;;;3.33;;
78346;SDS011;67803;41.330;69.282;2023-12-29T13:52:41;15.90;;;5.50;;
78346;SDS011;67803;41.330;69.282;2023-12-29T13:55:12;7.65;;;4.25;;
78346;SDS011;67803;41.330;69.282;2023-12-29T13:57:42;10.52;;;4.22;;
78346;SDS011;67803;41.330;69.282;2023-12-29T14:00:20;10.82;;;4.75;;
78346;SDS011;67803;41.330;69.282;2023-12-29T14:08:26;9.35;;;4.15;;
78346;SDS011;67803;41.330;69.282;2023-12-29T14:10:57;11.88;;;5.15;;
78346;SDS011;67803;41.330;69.282;2023-12-29T14:13:28;10.15;;;4.97;;
78346;SDS011;67803;41.330;69.282;2023-12-29T14:15:59;11.55;;;5.28;;
78346;SDS011;67803;41.330;69.282;2023-12-29T14:21:05;11.07;;;5.82;;
78346;SDS011;67803;41.330;69.282;2023-12-29T14:29:24;16.55;;;7.05;;
78346;SDS011;67803;41.330;69.282;2023-12-29T14:31:55;12.45;;;5.47;;
78346;SDS011;67803;41.330;69.282;2023-12-29T14:34:26;12.55;;;4.53;;
78346;SDS011;67803;41.330;69.282;2023-12-29T14:36:57;9.60;;;5.30;;
78346;SDS011;67803;41.330;69.282;2023-12-29T14:39:27;9.18;;;4.38;;
78346;SDS011;67803;41.330;69.282;2023-12-29T14:41:58;7.95;;;4.18;;
78346;SDS011;67803;41.330;69.282;2023-12-29T14:44:28;10.48;;;4.50;;
78346;SDS011;67803;41.330;69.282;2023-12-29T14:46:59;12.40;;;5.10;;
78346;SDS011;67803;41.330;69.282;2023-12-29T14:49:29;13.43;;;4.97;;
78346;SDS011;67803;41.330;69.282;2023-12-29T14:52:00;11.77;;;4.38;;
78346;SDS011;67803;41.330;69.282;2023-12-29T14:54:31;12.98;;;5.68;;
78346;SDS011;67803;41.330;69.282;2023-12-29T14:57:01;12.90;;;4.95;;
78346;SDS011;67803;41.330;69.282;2023-12-29T14:59:32;13.85;;;5.18;;
78346;SDS011;67803;41.330;69.282;2023-12-29T15:02:02;12.32;;;6.10;;
78346;SDS011;67803;41.330;69.282;2023-12-29T15:04:34;10.43;;;5.53;;
78346;SDS011;67803;41.330;69.282;2023-12-29T15:07:05;12.15;;;5.53;;
78346;SDS011;67803;41.330;69.282;2023-12-29T15:09:35;13.27;;;6.35;;
78346;SDS011;67803;41.330;69.282;2023-12-29T15:12:06;14.10;;;5.85;;
78346;SDS011;67803;41.330;69.282;2023-12-29T15:14:37;12.75;;;6.57;;
78346;SDS011;67803;41.330;69.282;2023-12-29T15:17:07;23.92;;;9.07;;
78346;SDS011;67803;41.330;69.282;2023-12-29T15:19:38;14.07;;;7.72;;
78346;SDS011;67803;41.330;69.282;2023-12-29T15:22:08;19.35;;;8.98;;
78346;SDS011;67803;41.330;69.282;2023-12-29T15:24:39;17.50;;;8.65;;